Terminal Aerodrome Forecast
Issued by NWS

Home | Current Version | Previous Version | Text Only | Print | Product List | Glossary On
Versions: 1 2 3 4 5 6 7 8 9 10 11 12 13 14 15 16
000
FTAK31 PAFA 310001 RRA
TAFAFA
TAF
PAFA 310001Z 3100/0106 22005KT P6SM -RA SCT025 OVC070
     FM310600 23005KT 5SM -RA BR OVC025
     FM310800 25008KT 3SM -RA BR OVC015
     FM312000 26006KT P6SM -SHRA OVC025
     FM010000 27008KT P6SM VCSH SCT025 BKN040=

USA.gov is the U.S. government's official web portal to all federal, state and local government web resources and services.